Terminal Aerodrome Forecast
Issued by NWS Charleston, WV

Current Version | Previous Version | Graphics & Text | Print | Product List | Glossary On
Versions: 1 2 3 4 5 6 7 8 9 10 11 12 13 14 15 16 17 18 19 20 21 22 23 24 25
000
FTUS41 KRLX 071437 AAE
TAFEKN
TAF AMD
KEKN 071437Z 0715/0812 26005KT P6SM OVC025
     FM072000 27005KT P6SM BKN035
     FM072100 27005KT P6SM SCT035
     FM080000 00000KT P6SM SCT120
     FM080500 00000KT P6SM BKN010
     FM080600 00000KT P6SM BKN008=

USA.gov is the U.S. government's official web portal to all federal, state and local government web resources and services.